sensor_id;sensor_type;location;lat;lon;timestamp;temperature;humidity
26107;DHT22;13866;50.748;12.630;2023-04-15T00:02:17;5.10;99.90
26107;DHT22;13866;50.748;12.630;2023-04-15T00:04:46;5.10;99.90
26107;DHT22;13866;50.748;12.630;2023-04-15T00:07:12;5.10;99.90
26107;DHT22;13866;50.748;12.630;2023-04-15T00:09:38;5.10;99.90
26107;DHT22;13866;50.748;12.630;2023-04-15T00:12:04;5.10;99.90
26107;DHT22;13866;50.748;12.630;2023-04-15T00:14:30;5.10;99.90
26107;DHT22;13866;50.748;12.630;2023-04-15T00:16:55;5.10;99.90
26107;DHT22;13866;50.748;12.630;2023-04-15T00:19:22;5.10;99.90
26107;DHT22;13866;50.748;12.630;2023-04-15T00:21:48;5.10;99.90
26107;DHT22;13866;50.748;12.630;2023-04-15T00:24:14;5.10;99.90
26107;DHT22;13866;50.748;12.630;2023-04-15T00:26:39;5.10;99.90
26107;DHT22;13866;50.748;12.630;2023-04-15T00:29:05;5.10;99.90
26107;DHT22;13866;50.748;12.630;2023-04-15T00:31:31;5.10;99.90
26107;DHT22;13866;50.748;12.630;2023-04-15T00:33:56;5.10;99.90
26107;DHT22;13866;50.748;12.630;2023-04-15T00:36:22;5.10;99.90
26107;DHT22;13866;50.748;12.630;2023-04-15T00:38:48;5.10;99.90
26107;DHT22;13866;50.748;12.630;2023-04-15T00:41:14;5.10;99.90
26107;DHT22;13866;50.748;12.630;2023-04-15T00:43:39;5.10;99.90
26107;DHT22;13866;50.748;12.630;2023-04-15T00:46:05;5.10;99.90
26107;DHT22;13866;50.748;12.630;2023-04-15T00:48:31;5.10;99.90
26107;DHT22;13866;50.748;12.630;2023-04-15T00:50:57;5.00;99.90
26107;DHT22;13866;50.748;12.630;2023-04-15T00:53:23;5.10;99.90
26107;DHT22;13866;50.748;12.630;2023-04-15T00:55:48;5.10;99.90
26107;DHT22;13866;50.748;12.630;2023-04-15T00:58:14;5.10;99.90
26107;DHT22;13866;50.748;12.630;2023-04-15T01:00:41;5.00;99.90
26107;DHT22;13866;50.748;12.630;2023-04-15T01:03:07;5.00;99.90
26107;DHT22;13866;50.748;12.630;2023-04-15T01:05:33;5.00;99.90
26107;DHT22;13866;50.748;12.630;2023-04-15T01:07:59;5.00;99.90
26107;DHT22;13866;50.748;12.630;2023-04-15T01:10:24;5.00;99.90
26107;DHT22;13866;50.748;12.630;2023-04-15T01:12:50;5.00;99.90
26107;DHT22;13866;50.748;12.630;2023-04-15T01:15:15;5.00;99.90
26107;DHT22;13866;50.748;12.630;2023-04-15T01:17:41;5.00;99.90
26107;DHT22;13866;50.748;12.630;2023-04-15T01:20:07;5.10;99.90
26107;DHT22;13866;50.748;12.630;2023-04-15T01:22:34;5.00;99.90
26107;DHT22;13866;50.748;12.630;2023-04-15T01:25:05;5.00;99.90
26107;DHT22;13866;50.748;12.630;2023-04-15T01:27:32;5.00;99.90
26107;DHT22;13866;50.748;12.630;2023-04-15T01:29:59;5.00;99.90
26107;DHT22;13866;50.748;12.630;2023-04-15T01:32:25;5.00;99.90
26107;DHT22;13866;50.748;12.630;2023-04-15T01:34:50;5.00;99.90
26107;DHT22;13866;50.748;12.630;2023-04-15T01:37:16;5.00;99.90
26107;DHT22;13866;50.748;12.630;2023-04-15T01:39:41;5.00;99.90
26107;DHT22;13866;50.748;12.630;2023-04-15T01:42:07;5.00;99.90
26107;DHT22;13866;50.748;12.630;2023-04-15T01:44:32;5.00;99.90
26107;DHT22;13866;50.748;12.630;2023-04-15T01:46:58;5.00;99.90
26107;DHT22;13866;50.748;12.630;2023-04-15T01:49:23;5.00;99.90
26107;DHT22;13866;50.748;12.630;2023-04-15T01:51:49;5.00;99.90
26107;DHT22;13866;50.748;12.630;2023-04-15T01:54:14;5.10;99.90
26107;DHT22;13866;50.748;12.630;2023-04-15T01:56:40;5.10;99.90
26107;DHT22;13866;50.748;12.630;2023-04-15T01:59:06;5.00;99.90
26107;DHT22;13866;50.748;12.630;2023-04-15T02:01:31;5.00;99.90
26107;DHT22;13866;50.748;12.630;2023-04-15T02:03:58;5.00;99.90
26107;DHT22;13866;50.748;12.630;2023-04-15T02:06:23;5.00;99.90
26107;DHT22;13866;50.748;12.630;2023-04-15T02:08:49;5.00;99.90
26107;DHT22;13866;50.748;12.630;2023-04-15T02:11:15;5.00;99.90
26107;DHT22;13866;50.748;12.630;2023-04-15T02:13:40;5.00;99.90
26107;DHT22;13866;50.748;12.630;2023-04-15T02:16:15;5.00;99.90
26107;DHT22;13866;50.748;12.630;2023-04-15T02:18:41;5.00;99.90
26107;DHT22;13866;50.748;12.630;2023-04-15T02:21:07;4.90;99.90
26107;DHT22;13866;50.748;12.630;2023-04-15T02:23:33;4.90;99.90
26107;DHT22;13866;50.748;12.630;2023-04-15T02:25:58;4.90;99.90
26107;DHT22;13866;50.748;12.630;2023-04-15T02:28:24;4.90;99.90
26107;DHT22;13866;50.748;12.630;2023-04-15T02:30:50;4.90;99.90
26107;DHT22;13866;50.748;12.630;2023-04-15T02:33:17;4.90;99.90
26107;DHT22;13866;50.748;12.630;2023-04-15T02:35:43;4.90;99.90
26107;DHT22;13866;50.748;12.630;2023-04-15T02:38:10;4.90;99.90
26107;DHT22;13866;50.748;12.630;2023-04-15T02:40:36;4.80;99.90
26107;DHT22;13866;50.748;12.630;2023-04-15T02:43:01;4.90;99.90
26107;DHT22;13866;50.748;12.630;2023-04-15T02:45:27;4.90;99.90
26107;DHT22;13866;50.748;12.630;2023-04-15T02:47:53;4.90;99.90
26107;DHT22;13866;50.748;12.630;2023-04-15T02:50:19;4.90;99.90
26107;DHT22;13866;50.748;12.630;2023-04-15T02:52:45;4.90;99.90
26107;DHT22;13866;50.748;12.630;2023-04-15T02:55:11;4.90;99.90
26107;DHT22;13866;50.748;12.630;2023-04-15T02:57:37;4.90;99.90
26107;DHT22;13866;50.748;12.630;2023-04-15T03:00:04;4.90;99.90
26107;DHT22;13866;50.748;12.630;2023-04-15T03:02:34;4.90;99.90
26107;DHT22;13866;50.748;12.630;2023-04-15T03:05:00;4.90;99.90
26107;DHT22;13866;50.748;12.630;2023-04-15T03:07:25;4.90;99.90
26107;DHT22;13866;50.748;12.630;2023-04-15T03:09:51;4.90;99.90
26107;DHT22;13866;50.748;12.630;2023-04-15T03:12:16;4.90;99.90
26107;DHT22;13866;50.748;12.630;2023-04-15T03:14:42;4.90;99.90
26107;DHT22;13866;50.748;12.630;2023-04-15T03:17:07;4.90;99.90
26107;DHT22;13866;50.748;12.630;2023-04-15T03:19:33;4.90;99.90
26107;DHT22;13866;50.748;12.630;2023-04-15T03:21:58;4.90;99.90
26107;DHT22;13866;50.748;12.630;2023-04-15T03:24:25;4.90;99.90
26107;DHT22;13866;50.748;12.630;2023-04-15T03:26:51;4.90;99.90
26107;DHT22;13866;50.748;12.630;2023-04-15T03:29:16;4.90;99.90
26107;DHT22;13866;50.748;12.630;2023-04-15T03:31:42;4.90;99.90
26107;DHT22;13866;50.748;12.630;2023-04-15T03:34:07;5.00;99.90
26107;DHT22;13866;50.748;12.630;2023-04-15T03:36:33;5.00;99.90
26107;DHT22;13866;50.748;12.630;2023-04-15T03:38:58;5.00;99.90
26107;DHT22;13866;50.748;12.630;2023-04-15T03:41:26;4.90;99.90
26107;DHT22;13866;50.748;12.630;2023-04-15T03:43:52;4.90;99.90
26107;DHT22;13866;50.748;12.630;2023-04-15T03:46:18;4.90;99.90
26107;DHT22;13866;50.748;12.630;2023-04-15T03:48:43;5.00;99.90
26107;DHT22;13866;50.748;12.630;2023-04-15T03:51:09;5.00;99.90
26107;DHT22;13866;50.748;12.630;2023-04-15T03:53:35;4.90;99.90
26107;DHT22;13866;50.748;12.630;2023-04-15T03:56:00;4.90;99.90
26107;DHT22;13866;50.748;12.630;2023-04-15T03:58:26;4.90;99.90
26107;DHT22;13866;50.748;12.630;2023-04-15T04:00:52;4.90;99.90
26107;DHT22;13866;50.748;12.630;2023-04-15T04:03:17;4.90;99.90
26107;DHT22;13866;50.748;12.630;2023-04-15T04:05:43;4.90;99.90
26107;DHT22;13866;50.748;12.630;2023-04-15T04:08:09;4.90;99.90
26107;DHT22;13866;50.748;12.630;2023-04-15T04:10:35;4.90;99.90
26107;DHT22;13866;50.748;12.630;2023-04-15T04:13:00;4.90;99.90
26107;DHT22;13866;50.748;12.630;2023-04-15T04:15:26;4.90;99.90
26107;DHT22;13866;50.748;12.630;2023-04-15T04:17:51;5.00;99.90
26107;DHT22;13866;50.748;12.630;2023-04-15T04:20:17;4.90;99.90
26107;DHT22;13866;50.748;12.630;2023-04-15T04:22:42;4.90;99.90
26107;DHT22;13866;50.748;12.630;2023-04-15T04:25:08;4.90;99.90
26107;DHT22;13866;50.748;12.630;2023-04-15T04:27:37;5.00;99.90
26107;DHT22;13866;50.748;12.630;2023-04-15T04:30:03;5.00;99.90
26107;DHT22;13866;50.748;12.630;2023-04-15T04:32:29;5.00;99.90
26107;DHT22;13866;50.748;12.630;2023-04-15T04:34:54;5.00;99.90
26107;DHT22;13866;50.748;12.630;2023-04-15T04:37:20;4.90;99.90
26107;DHT22;13866;50.748;12.630;2023-04-15T04:39:47;4.90;99.90
26107;DHT22;13866;50.748;12.630;2023-04-15T04:42:12;4.90;99.90
26107;DHT22;13866;50.748;12.630;2023-04-15T04:44:38;4.90;99.90
26107;DHT22;13866;50.748;12.630;2023-04-15T04:47:03;4.90;99.90
26107;DHT22;13866;50.748;12.630;2023-04-15T04:49:30;4.90;99.90
26107;DHT22;13866;50.748;12.630;2023-04-15T04:51:56;4.90;99.90
26107;DHT22;13866;50.748;12.630;2023-04-15T04:54:21;4.90;99.90
26107;DHT22;13866;50.748;12.630;2023-04-15T04:56:48;4.90;99.90
26107;DHT22;13866;50.748;12.630;2023-04-15T04:59:13;4.90;99.90
26107;DHT22;13866;50.748;12.630;2023-04-15T05:01:39;4.90;99.90
26107;DHT22;13866;50.748;12.630;2023-04-15T05:04:05;4.90;99.90
26107;DHT22;13866;50.748;12.630;2023-04-15T05:06:32;4.90;99.90
26107;DHT22;13866;50.748;12.630;2023-04-15T05:08:57;4.90;99.90
26107;DHT22;13866;50.748;12.630;2023-04-15T05:11:23;4.90;99.90
26107;DHT22;13866;50.748;12.630;2023-04-15T05:13:48;4.90;99.90
26107;DHT22;13866;50.748;12.630;2023-04-15T05:16:14;4.90;99.90
26107;DHT22;13866;50.748;12.630;2023-04-15T05:18:39;4.90;99.90
26107;DHT22;13866;50.748;12.630;2023-04-15T05:21:05;4.90;99.90
26107;DHT22;13866;50.748;12.630;2023-04-15T05:23:31;5.00;99.90
26107;DHT22;13866;50.748;12.630;2023-04-15T05:25:56;4.90;99.90
26107;DHT22;13866;50.748;12.630;2023-04-15T05:28:22;4.90;99.90
26107;DHT22;13866;50.748;12.630;2023-04-15T05:30:47;5.00;99.90
26107;DHT22;13866;50.748;12.630;2023-04-15T05:33:13;4.90;99.90
26107;DHT22;13866;50.748;12.630;2023-04-15T05:35:38;4.90;99.90
26107;DHT22;13866;50.748;12.630;2023-04-15T05:38:04;4.90;99.90
26107;DHT22;13866;50.748;12.630;2023-04-15T05:40:29;4.90;99.90
26107;DHT22;13866;50.748;12.630;2023-04-15T05:42:55;4.90;99.90
26107;DHT22;13866;50.748;12.630;2023-04-15T05:45:21;4.90;99.90
26107;DHT22;13866;50.748;12.630;2023-04-15T05:47:46;4.90;99.90
26107;DHT22;13866;50.748;12.630;2023-04-15T05:50:14;4.90;99.90
26107;DHT22;13866;50.748;12.630;2023-04-15T05:52:40;4.90;99.90
26107;DHT22;13866;50.748;12.630;2023-04-15T05:55:05;5.00;99.90
26107;DHT22;13866;50.748;12.630;2023-04-15T05:57:31;5.00;99.90
26107;DHT22;13866;50.748;12.630;2023-04-15T05:59:56;5.00;99.90
26107;DHT22;13866;50.748;12.630;2023-04-15T06:02:22;5.00;99.90
26107;DHT22;13866;50.748;12.630;2023-04-15T06:04:47;5.00;99.90
26107;DHT22;13866;50.748;12.630;2023-04-15T06:07:13;4.90;99.90
26107;DHT22;13866;50.748;12.630;2023-04-15T06:09:38;5.00;99.90
26107;DHT22;13866;50.748;12.630;2023-04-15T06:12:04;5.00;99.90
26107;DHT22;13866;50.748;12.630;2023-04-15T06:14:31;5.00;99.90
26107;DHT22;13866;50.748;12.630;2023-04-15T06:16:56;5.00;99.90
26107;DHT22;13866;50.748;12.630;2023-04-15T06:19:22;5.00;99.90
26107;DHT22;13866;50.748;12.630;2023-04-15T06:21:47;5.10;99.90
26107;DHT22;13866;50.748;12.630;2023-04-15T06:24:13;5.00;99.90
26107;DHT22;13866;50.748;12.630;2023-04-15T06:26:38;5.10;99.90
26107;DHT22;13866;50.748;12.630;2023-04-15T06:29:04;5.20;99.90
26107;DHT22;13866;50.748;12.630;2023-04-15T06:31:30;5.20;99.90
26107;DHT22;13866;50.748;12.630;2023-04-15T06:33:55;5.20;99.90
26107;DHT22;13866;50.748;12.630;2023-04-15T06:36:21;5.20;99.90
26107;DHT22;13866;50.748;12.630;2023-04-15T06:38:46;5.10;99.90
26107;DHT22;13866;50.748;12.630;2023-04-15T06:41:12;5.20;99.90
26107;DHT22;13866;50.748;12.630;2023-04-15T06:43:38;5.20;99.90
26107;DHT22;13866;50.748;12.630;2023-04-15T06:46:03;5.20;99.90
26107;DHT22;13866;50.748;12.630;2023-04-15T06:48:29;5.20;99.90
26107;DHT22;13866;50.748;12.630;2023-04-15T06:50:55;5.20;99.90
26107;DHT22;13866;50.748;12.630;2023-04-15T06:53:20;5.20;99.90
26107;DHT22;13866;50.748;12.630;2023-04-15T06:55:47;5.20;99.90
26107;DHT22;13866;50.748;12.630;2023-04-15T06:58:12;5.30;99.90
26107;DHT22;13866;50.748;12.630;2023-04-15T07:00:38;5.30;99.90
26107;DHT22;13866;50.748;12.630;2023-04-15T07:03:04;5.30;99.90
26107;DHT22;13866;50.748;12.630;2023-04-15T07:05:29;5.30;99.90
26107;DHT22;13866;50.748;12.630;2023-04-15T07:07:56;5.40;99.90
26107;DHT22;13866;50.748;12.630;2023-04-15T07:10:22;5.40;99.90
26107;DHT22;13866;50.748;12.630;2023-04-15T07:12:48;5.40;99.90
26107;DHT22;13866;50.748;12.630;2023-04-15T07:15:15;5.40;99.90
26107;DHT22;13866;50.748;12.630;2023-04-15T07:17:40;5.40;99.90
26107;DHT22;13866;50.748;12.630;2023-04-15T07:20:07;5.40;99.90
26107;DHT22;13866;50.748;12.630;2023-04-15T07:22:33;5.50;99.90
26107;DHT22;13866;50.748;12.630;2023-04-15T07:24:59;5.50;99.90
26107;DHT22;13866;50.748;12.630;2023-04-15T07:27:24;5.50;99.90
26107;DHT22;13866;50.748;12.630;2023-04-15T07:29:50;5.50;99.90
26107;DHT22;13866;50.748;12.630;2023-04-15T07:32:16;5.50;99.90
26107;DHT22;13866;50.748;12.630;2023-04-15T07:34:42;5.60;99.90
26107;DHT22;13866;50.748;12.630;2023-04-15T07:37:08;5.60;99.90
26107;DHT22;13866;50.748;12.630;2023-04-15T07:39:34;5.60;99.90
26107;DHT22;13866;50.748;12.630;2023-04-15T07:41:59;5.60;99.90
26107;DHT22;13866;50.748;12.630;2023-04-15T07:44:25;5.60;99.90
26107;DHT22;13866;50.748;12.630;2023-04-15T07:46:51;5.70;99.90
26107;DHT22;13866;50.748;12.630;2023-04-15T07:49:16;5.70;99.90
26107;DHT22;13866;50.748;12.630;2023-04-15T07:51:43;5.70;99.90
26107;DHT22;13866;50.748;12.630;2023-04-15T07:54:09;5.70;99.90
26107;DHT22;13866;50.748;12.630;2023-04-15T07:56:35;5.70;99.90
26107;DHT22;13866;50.748;12.630;2023-04-15T07:59:00;5.80;99.90
26107;DHT22;13866;50.748;12.630;2023-04-15T08:01:30;5.80;99.90
26107;DHT22;13866;50.748;12.630;2023-04-15T08:03:57;5.80;99.90
26107;DHT22;13866;50.748;12.630;2023-04-15T08:06:23;5.80;99.90
26107;DHT22;13866;50.748;12.630;2023-04-15T08:08:48;5.80;99.90
26107;DHT22;13866;50.748;12.630;2023-04-15T08:11:14;5.90;99.90
26107;DHT22;13866;50.748;12.630;2023-04-15T08:13:39;5.90;99.90
26107;DHT22;13866;50.748;12.630;2023-04-15T08:18:43;6.00;99.90
26107;DHT22;13866;50.748;12.630;2023-04-15T08:21:09;6.00;99.90
26107;DHT22;13866;50.748;12.630;2023-04-15T08:23:35;6.10;99.90
26107;DHT22;13866;50.748;12.630;2023-04-15T08:26:00;6.10;99.90
26107;DHT22;13866;50.748;12.630;2023-04-15T08:28:26;6.20;99.90
26107;DHT22;13866;50.748;12.630;2023-04-15T08:30:52;6.20;99.90
26107;DHT22;13866;50.748;12.630;2023-04-15T08:33:18;6.30;99.90
26107;DHT22;13866;50.748;12.630;2023-04-15T08:35:43;6.30;99.90
26107;DHT22;13866;50.748;12.630;2023-04-15T08:38:08;6.30;99.90
26107;DHT22;13866;50.748;12.630;2023-04-15T08:40:42;6.40;99.90
26107;DHT22;13866;50.748;12.630;2023-04-15T08:43:10;6.40;99.90
26107;DHT22;13866;50.748;12.630;2023-04-15T08:45:38;6.40;99.90
26107;DHT22;13866;50.748;12.630;2023-04-15T08:48:04;6.40;99.90
26107;DHT22;13866;50.748;12.630;2023-04-15T08:50:31;6.50;99.90
26107;DHT22;13866;50.748;12.630;2023-04-15T08:52:58;6.50;99.90
26107;DHT22;13866;50.748;12.630;2023-04-15T08:55:29;6.40;99.90
26107;DHT22;13866;50.748;12.630;2023-04-15T08:57:57;6.40;99.90
26107;DHT22;13866;50.748;12.630;2023-04-15T09:00:24;6.40;99.90
26107;DHT22;13866;50.748;12.630;2023-04-15T09:02:50;6.40;99.90
26107;DHT22;13866;50.748;12.630;2023-04-15T09:05:16;6.30;99.90
26107;DHT22;13866;50.748;12.630;2023-04-15T09:07:42;6.40;99.90
26107;DHT22;13866;50.748;12.630;2023-04-15T09:10:08;6.40;99.90
26107;DHT22;13866;50.748;12.630;2023-04-15T09:12:37;6.50;99.90
26107;DHT22;13866;50.748;12.630;2023-04-15T09:15:03;6.50;99.90
26107;DHT22;13866;50.748;12.630;2023-04-15T09:17:32;6.50;99.90
26107;DHT22;13866;50.748;12.630;2023-04-15T09:20:11;6.50;99.90
26107;DHT22;13866;50.748;12.630;2023-04-15T09:22:38;6.50;99.90
26107;DHT22;13866;50.748;12.630;2023-04-15T09:25:24;6.50;99.90
26107;DHT22;13866;50.748;12.630;2023-04-15T09:27:53;6.60;99.90
26107;DHT22;13866;50.748;12.630;2023-04-15T09:30:18;6.60;99.90
26107;DHT22;13866;50.748;12.630;2023-04-15T09:32:58;6.70;99.90
26107;DHT22;13866;50.748;12.630;2023-04-15T09:35:25;6.70;99.90
26107;DHT22;13866;50.748;12.630;2023-04-15T09:37:51;6.80;99.90
26107;DHT22;13866;50.748;12.630;2023-04-15T09:40:36;6.80;99.90
26107;DHT22;13866;50.748;12.630;2023-04-15T09:43:03;6.70;99.90
26107;DHT22;13866;50.748;12.630;2023-04-15T09:45:30;6.70;99.90
26107;DHT22;13866;50.748;12.630;2023-04-15T09:47:57;6.80;99.90
26107;DHT22;13866;50.748;12.630;2023-04-15T09:50:26;6.70;99.90
26107;DHT22;13866;50.748;12.630;2023-04-15T09:52:52;6.70;99.90
26107;DHT22;13866;50.748;12.630;2023-04-15T09:55:18;6.80;99.90
26107;DHT22;13866;50.748;12.630;2023-04-15T09:57:44;6.80;99.90
26107;DHT22;13866;50.748;12.630;2023-04-15T10:00:11;6.90;99.90
26107;DHT22;13866;50.748;12.630;2023-04-15T10:02:41;6.90;99.90
26107;DHT22;13866;50.748;12.630;2023-04-15T10:05:09;6.90;99.90
26107;DHT22;13866;50.748;12.630;2023-04-15T10:07:37;6.80;99.90
26107;DHT22;13866;50.748;12.630;2023-04-15T10:10:03;6.90;99.90
26107;DHT22;13866;50.748;12.630;2023-04-15T10:12:30;6.90;99.90
26107;DHT22;13866;50.748;12.630;2023-04-15T10:14:58;6.90;99.90
26107;DHT22;13866;50.748;12.630;2023-04-15T10:17:27;6.80;99.90
26107;DHT22;13866;50.748;12.630;2023-04-15T10:20:00;6.80;99.90
26107;DHT22;13866;50.748;12.630;2023-04-15T10:22:27;6.90;99.90
26107;DHT22;13866;50.748;12.630;2023-04-15T10:24:54;6.90;99.90
26107;DHT22;13866;50.748;12.630;2023-04-15T10:27:20;7.00;99.90
26107;DHT22;13866;50.748;12.630;2023-04-15T10:29:47;7.10;99.90
26107;DHT22;13866;50.748;12.630;2023-04-15T10:32:14;7.10;99.90
26107;DHT22;13866;50.748;12.630;2023-04-15T10:34:40;7.10;99.90
26107;DHT22;13866;50.748;12.630;2023-04-15T10:37:08;7.10;99.90
26107;DHT22;13866;50.748;12.630;2023-04-15T10:42:08;7.30;99.90
26107;DHT22;13866;50.748;12.630;2023-04-15T10:44:38;7.30;99.90
26107;DHT22;13866;50.748;12.630;2023-04-15T10:47:30;7.40;99.90
26107;DHT22;13866;50.748;12.630;2023-04-15T10:49:58;7.40;99.90
26107;DHT22;13866;50.748;12.630;2023-04-15T10:52:27;7.30;99.90
26107;DHT22;13866;50.748;12.630;2023-04-15T10:55:02;7.30;99.90
26107;DHT22;13866;50.748;12.630;2023-04-15T10:57:34;7.40;99.90
26107;DHT22;13866;50.748;12.630;2023-04-15T11:02:46;7.50;99.90
26107;DHT22;13866;50.748;12.630;2023-04-15T11:05:13;7.50;99.90
26107;DHT22;13866;50.748;12.630;2023-04-15T11:07:46;7.60;99.90
26107;DHT22;13866;50.748;12.630;2023-04-15T11:15:48;7.50;99.90
26107;DHT22;13866;50.748;12.630;2023-04-15T11:18:24;7.50;99.90
26107;DHT22;13866;50.748;12.630;2023-04-15T11:21:11;7.50;99.90
26107;DHT22;13866;50.748;12.630;2023-04-15T11:26:08;7.50;99.90
26107;DHT22;13866;50.748;12.630;2023-04-15T11:28:37;7.60;99.90
26107;DHT22;13866;50.748;12.630;2023-04-15T11:33:35;7.60;99.90
26107;DHT22;13866;50.748;12.630;2023-04-15T11:36:01;7.60;99.90
26107;DHT22;13866;50.748;12.630;2023-04-15T11:38:27;7.50;99.90
26107;DHT22;13866;50.748;12.630;2023-04-15T11:40:53;7.50;99.90
26107;DHT22;13866;50.748;12.630;2023-04-15T11:43:20;7.50;99.90
26107;DHT22;13866;50.748;12.630;2023-04-15T11:45:54;7.50;99.90
26107;DHT22;13866;50.748;12.630;2023-04-15T11:48:32;7.60;99.90
26107;DHT22;13866;50.748;12.630;2023-04-15T11:51:03;7.60;99.90
26107;DHT22;13866;50.748;12.630;2023-04-15T11:53:37;7.70;99.90
26107;DHT22;13866;50.748;12.630;2023-04-15T11:56:03;7.70;99.90
26107;DHT22;13866;50.748;12.630;2023-04-15T11:58:29;7.60;99.90
26107;DHT22;13866;50.748;12.630;2023-04-15T12:00:57;7.60;99.90
26107;DHT22;13866;50.748;12.630;2023-04-15T12:03:26;7.60;99.90
26107;DHT22;13866;50.748;12.630;2023-04-15T12:16:50;7.60;99.90
26107;DHT22;13866;50.748;12.630;2023-04-15T12:19:37;7.60;99.90
26107;DHT22;13866;50.748;12.630;2023-04-15T12:22:05;7.70;99.90
26107;DHT22;13866;50.748;12.630;2023-04-15T12:24:34;7.60;99.90
26107;DHT22;13866;50.748;12.630;2023-04-15T12:27:07;7.60;99.90
26107;DHT22;13866;50.748;12.630;2023-04-15T12:29:34;7.60;99.90
26107;DHT22;13866;50.748;12.630;2023-04-15T12:32:14;7.60;99.90
26107;DHT22;13866;50.748;12.630;2023-04-15T12:34:42;7.60;99.90
26107;DHT22;13866;50.748;12.630;2023-04-15T12:37:10;7.60;99.90
26107;DHT22;13866;50.748;12.630;2023-04-15T12:39:38;7.50;99.90
26107;DHT22;13866;50.748;12.630;2023-04-15T12:42:04;7.50;99.90
26107;DHT22;13866;50.748;12.630;2023-04-15T12:44:31;7.50;99.90
26107;DHT22;13866;50.748;12.630;2023-04-15T12:46:57;7.50;99.90
26107;DHT22;13866;50.748;12.630;2023-04-15T12:49:24;7.50;99.90
26107;DHT22;13866;50.748;12.630;2023-04-15T12:51:52;7.60;99.90
26107;DHT22;13866;50.748;12.630;2023-04-15T12:54:18;7.60;99.90
26107;DHT22;13866;50.748;12.630;2023-04-15T12:56:45;7.60;99.90
26107;DHT22;13866;50.748;12.630;2023-04-15T12:59:11;7.60;99.90
26107;DHT22;13866;50.748;12.630;2023-04-15T13:01:37;7.60;99.90
26107;DHT22;13866;50.748;12.630;2023-04-15T13:04:03;7.60;99.90
26107;DHT22;13866;50.748;12.630;2023-04-15T13:06:28;7.60;99.90
26107;DHT22;13866;50.748;12.630;2023-04-15T13:08:54;7.70;99.90
26107;DHT22;13866;50.748;12.630;2023-04-15T13:11:21;7.70;99.90
26107;DHT22;13866;50.748;12.630;2023-04-15T13:13:47;7.80;99.90
26107;DHT22;13866;50.748;12.630;2023-04-15T13:16:12;7.80;99.90
26107;DHT22;13866;50.748;12.630;2023-04-15T13:18:38;7.70;99.90
26107;DHT22;13866;50.748;12.630;2023-04-15T13:21:03;7.70;99.90
26107;DHT22;13866;50.748;12.630;2023-04-15T13:23:32;7.70;99.90
26107;DHT22;13866;50.748;12.630;2023-04-15T13:25:57;7.80;99.90
26107;DHT22;13866;50.748;12.630;2023-04-15T13:28:23;7.70;99.90
26107;DHT22;13866;50.748;12.630;2023-04-15T13:30:48;7.70;99.90
26107;DHT22;13866;50.748;12.630;2023-04-15T13:33:15;7.70;99.90
26107;DHT22;13866;50.748;12.630;2023-04-15T13:35:40;7.70;99.90
26107;DHT22;13866;50.748;12.630;2023-04-15T13:38:06;7.70;99.90
26107;DHT22;13866;50.748;12.630;2023-04-15T13:40:31;7.70;99.90
26107;DHT22;13866;50.748;12.630;2023-04-15T13:42:57;7.80;99.90
26107;DHT22;13866;50.748;12.630;2023-04-15T13:45:22;7.80;99.90
26107;DHT22;13866;50.748;12.630;2023-04-15T13:47:48;7.80;99.90
26107;DHT22;13866;50.748;12.630;2023-04-15T13:50:13;7.80;99.90
26107;DHT22;13866;50.748;12.630;2023-04-15T13:52:39;7.70;99.90
26107;DHT22;13866;50.748;12.630;2023-04-15T13:55:05;7.60;99.90
26107;DHT22;13866;50.748;12.630;2023-04-15T13:57:31;7.70;99.90
26107;DHT22;13866;50.748;12.630;2023-04-15T13:59:57;7.70;99.90
26107;DHT22;13866;50.748;12.630;2023-04-15T14:02:22;7.70;99.90
26107;DHT22;13866;50.748;12.630;2023-04-15T14:04:48;7.70;99.90
26107;DHT22;13866;50.748;12.630;2023-04-15T14:07:13;7.80;99.90
26107;DHT22;13866;50.748;12.630;2023-04-15T14:09:39;7.80;99.90
26107;DHT22;13866;50.748;12.630;2023-04-15T14:12:04;7.80;99.90
26107;DHT22;13866;50.748;12.630;2023-04-15T14:14:30;7.80;99.90
26107;DHT22;13866;50.748;12.630;2023-04-15T14:16:56;7.80;99.90
26107;DHT22;13866;50.748;12.630;2023-04-15T14:19:22;7.80;99.90
26107;DHT22;13866;50.748;12.630;2023-04-15T14:21:48;7.80;99.90
26107;DHT22;13866;50.748;12.630;2023-04-15T14:24:13;7.80;99.90
26107;DHT22;13866;50.748;12.630;2023-04-15T14:26:39;7.80;99.90
26107;DHT22;13866;50.748;12.630;2023-04-15T14:29:04;7.80;99.90
26107;DHT22;13866;50.748;12.630;2023-04-15T14:31:30;7.80;99.90
26107;DHT22;13866;50.748;12.630;2023-04-15T14:33:55;7.80;99.90
26107;DHT22;13866;50.748;12.630;2023-04-15T14:36:21;7.80;99.90
26107;DHT22;13866;50.748;12.630;2023-04-15T14:38:46;7.80;99.90
26107;DHT22;13866;50.748;12.630;2023-04-15T14:41:12;7.90;99.90
26107;DHT22;13866;50.748;12.630;2023-04-15T14:43:37;7.90;99.90
26107;DHT22;13866;50.748;12.630;2023-04-15T14:46:03;7.90;99.90
26107;DHT22;13866;50.748;12.630;2023-04-15T14:48:30;8.00;99.90
26107;DHT22;13866;50.748;12.630;2023-04-15T14:50:56;8.00;99.90
26107;DHT22;13866;50.748;12.630;2023-04-15T14:53:22;8.00;99.90
26107;DHT22;13866;50.748;12.630;2023-04-15T14:55:47;8.10;99.90
26107;DHT22;13866;50.748;12.630;2023-04-15T14:58:13;8.20;99.90
26107;DHT22;13866;50.748;12.630;2023-04-15T15:00:38;8.10;99.90
26107;DHT22;13866;50.748;12.630;2023-04-15T15:03:09;8.00;99.90
26107;DHT22;13866;50.748;12.630;2023-04-15T15:05:40;8.00;99.90
26107;DHT22;13866;50.748;12.630;2023-04-15T15:08:06;7.90;99.90
26107;DHT22;13866;50.748;12.630;2023-04-15T15:10:32;7.90;99.90
26107;DHT22;13866;50.748;12.630;2023-04-15T15:12:58;8.00;99.90
26107;DHT22;13866;50.748;12.630;2023-04-15T15:15:23;8.00;99.90
26107;DHT22;13866;50.748;12.630;2023-04-15T15:17:49;8.00;99.90
26107;DHT22;13866;50.748;12.630;2023-04-15T15:20:15;7.90;99.90
26107;DHT22;13866;50.748;12.630;2023-04-15T15:22:41;7.90;99.90
26107;DHT22;13866;50.748;12.630;2023-04-15T15:25:06;7.90;99.90
26107;DHT22;13866;50.748;12.630;2023-04-15T15:27:32;7.90;99.90
26107;DHT22;13866;50.748;12.630;2023-04-15T15:29:58;7.80;99.90
26107;DHT22;13866;50.748;12.630;2023-04-15T15:32:23;7.80;99.90
26107;DHT22;13866;50.748;12.630;2023-04-15T15:34:48;7.80;99.90
26107;DHT22;13866;50.748;12.630;2023-04-15T15:37:14;7.80;99.90
26107;DHT22;13866;50.748;12.630;2023-04-15T15:39:40;7.80;99.90
26107;DHT22;13866;50.748;12.630;2023-04-15T15:42:06;7.90;99.90
26107;DHT22;13866;50.748;12.630;2023-04-15T15:44:31;7.90;99.90
26107;DHT22;13866;50.748;12.630;2023-04-15T15:46:58;7.80;99.90
26107;DHT22;13866;50.748;12.630;2023-04-15T15:49:23;7.70;99.90
26107;DHT22;13866;50.748;12.630;2023-04-15T15:51:50;7.70;99.90
26107;DHT22;13866;50.748;12.630;2023-04-15T15:54:16;7.80;99.90
26107;DHT22;13866;50.748;12.630;2023-04-15T15:56:41;7.80;99.90